Time;durP1;ratioP1;P1;durP2;ratioP2;P2;SDS_P1;SDS_P2;PMS_P1;PMS_P2;Temp;Humidity;BMP_temperature;BMP_pressure;BME280_temperature;BME280_humidity;BME280_pressure;Samples;Min_cycle;Max_cycle;Signal;HPM_P1;HPM_P2
2022/04/24 00:00:56;;;;;;;22.36;20.20;;;;;;;;;;5086063;28;24972;-49
2022/04/24 00:03:21;;;;;;;21.40;19.30;;;;;;;;;;5081125;28;24426;-49
2022/04/24 00:05:47;;;;;;;22.38;20.27;;;;;;;;;;5084720;28;24426;-49
2022/04/24 00:08:12;;;;;;;20.93;18.93;;;;;;;;;;5086579;28;24410;-50
2022/04/24 00:10:38;;;;;;;21.05;19.05;;;;;;;;;;5084687;28;24437;-49
2022/04/24 00:13:03;;;;;;;20.70;18.80;;;;;;;;;;5086830;28;24797;-50
2022/04/24 00:15:28;;;;;;;19.97;18.07;;;;;;;;;;5084134;28;24854;-50
2022/04/24 00:17:53;;;;;;;20.20;18.20;;;;;;;;;;5087839;28;24406;-50
2022/04/24 00:20:19;;;;;;;20.08;18.27;;;;;;;;;;5083026;28;24497;-50
2022/04/24 00:22:44;;;;;;;20.47;18.47;;;;;;;;;;5085765;28;24426;-49
2022/04/24 00:25:09;;;;;;;20.20;18.27;;;;;;;;;;5085203;28;24494;-50
2022/04/24 00:27:34;;;;;;;19.63;17.80;;;;;;;;;;5085147;28;24429;-49
2022/04/24 00:29:59;;;;;;;19.60;17.70;;;;;;;;;;5085273;28;24452;-50
2022/04/24 00:32:24;;;;;;;18.20;16.60;;;;;;;;;;5085297;28;24434;-50
2022/04/24 00:34:49;;;;;;;18.70;17.00;;;;;;;;;;5085628;28;24896;-50
2022/04/24 00:37:15;;;;;;;19.60;17.70;;;;;;;;;;5084434;28;24426;-50
2022/04/24 00:39:40;;;;;;;19.23;17.42;;;;;;;;;;5084015;28;24440;-50
2022/04/24 00:42:07;;;;;;;19.45;17.65;;;;;;;;;;5084417;28;24960;-50
2022/04/24 00:44:32;;;;;;;19.25;17.35;;;;;;;;;;5081639;28;24449;-50
2022/04/24 00:47:02;;;;;;;19.20;17.40;;;;;;;;;;5085106;28;25224;-50
2022/04/24 00:49:28;;;;;;;18.90;17.10;;;;;;;;;;5086036;28;24471;-50
2022/04/24 00:51:54;;;;;;;19.55;17.55;;;;;;;;;;5083915;28;24571;-50
2022/04/24 00:54:19;;;;;;;19.73;17.83;;;;;;;;;;5086340;28;24822;-50
2022/04/24 00:56:44;;;;;;;19.07;17.17;;;;;;;;;;5083566;28;24859;-50
2022/04/24 00:59:11;;;;;;;18.83;17.00;;;;;;;;;;5090332;28;24414;-50
2022/04/24 01:01:36;;;;;;;19.05;17.25;;;;;;;;;;5088197;28;24433;-50
2022/04/24 01:04:03;;;;;;;18.30;16.60;;;;;;;;;;5089298;28;24964;-49
2022/04/24 01:06:31;;;;;;;18.45;16.75;;;;;;;;;;5088030;28;24410;-50
2022/04/24 01:09:06;;;;;;;18.35;16.75;;;;;;;;;;5073494;28;24751;-49
2022/04/24 01:11:32;;;;;;;18.92;17.20;;;;;;;;;;5089115;28;24449;-49
2022/04/24 01:13:57;;;;;;;19.73;17.83;;;;;;;;;;5088581;28;24769;-49
2022/04/24 01:16:23;;;;;;;18.60;16.73;;;;;;;;;;5089977;28;24421;-49
2022/04/24 01:18:48;;;;;;;19.60;17.75;;;;;;;;;;5086259;28;25201;-49
2022/04/24 01:21:14;;;;;;;19.27;17.47;;;;;;;;;;5089460;28;24975;-49
2022/04/24 01:23:39;;;;;;;19.30;17.40;;;;;;;;;;5088854;28;24422;-49
2022/04/24 01:26:05;;;;;;;19.35;17.55;;;;;;;;;;5089197;28;24429;-49
2022/04/24 01:28:31;;;;;;;19.27;17.40;;;;;;;;;;5089137;28;24508;-49
2022/04/24 01:30:56;;;;;;;19.03;17.13;;;;;;;;;;5087879;28;24426;-49
2022/04/24 01:33:21;;;;;;;18.97;17.17;;;;;;;;;;5087982;28;24498;-49
2022/04/24 01:35:46;;;;;;;18.30;16.70;;;;;;;;;;5089044;28;24529;-49
2022/04/24 01:38:11;;;;;;;18.73;17.02;;;;;;;;;;5088103;28;24560;-49
2022/04/24 01:40:36;;;;;;;18.70;17.00;;;;;;;;;;5088227;28;24421;-49
2022/04/24 01:43:02;;;;;;;19.37;17.57;;;;;;;;;;5086913;28;24426;-49
2022/04/24 01:45:27;;;;;;;19.90;18.00;;;;;;;;;;5088938;28;24436;-49
2022/04/24 01:47:52;;;;;;;19.20;17.40;;;;;;;;;;5087409;28;24975;-49
2022/04/24 01:50:17;;;;;;;19.00;17.20;;;;;;;;;;5086331;28;24452;-49
2022/04/24 01:52:42;;;;;;;18.50;16.77;;;;;;;;;;5088618;28;24418;-50
2022/04/24 01:55:07;;;;;;;20.17;18.27;;;;;;;;;;5089030;28;24454;-49
2022/04/24 01:57:33;;;;;;;18.97;17.17;;;;;;;;;;5084632;28;24414;-50
2022/04/24 01:59:58;;;;;;;18.45;16.75;;;;;;;;;;5085700;28;24507;-49
2022/04/24 02:02:23;;;;;;;17.92;16.33;;;;;;;;;;5086850;28;24753;-49
2022/04/24 02:04:48;;;;;;;17.30;15.60;;;;;;;;;;5087185;28;24512;-49
2022/04/24 02:07:13;;;;;;;17.38;15.77;;;;;;;;;;5088130;28;25102;-49
2022/04/24 02:09:40;;;;;;;17.13;15.65;;;;;;;;;;5085791;28;24952;-49
2022/04/24 02:12:05;;;;;;;17.23;15.52;;;;;;;;;;5087732;28;24978;-50
2022/04/24 02:14:30;;;;;;;16.57;15.17;;;;;;;;;;5087823;28;24414;-49
2022/04/24 02:16:55;;;;;;;16.80;15.40;;;;;;;;;;5088443;28;24430;-50
2022/04/24 02:19:20;;;;;;;16.75;15.32;;;;;;;;;;5087416;28;24496;-49
2022/04/24 02:21:46;;;;;;;17.23;15.73;;;;;;;;;;5087558;28;24422;-49
2022/04/24 02:24:11;;;;;;;18.23;16.63;;;;;;;;;;5087952;28;25007;-49
2022/04/24 02:26:36;;;;;;;18.17;16.55;;;;;;;;;;5088368;28;24777;-49
2022/04/24 02:29:02;;;;;;;18.87;17.27;;;;;;;;;;5088416;28;24434;-49
2022/04/24 02:31:27;;;;;;;19.00;17.40;;;;;;;;;;5086641;28;24523;-50
2022/04/24 02:33:53;;;;;;;18.70;17.10;;;;;;;;;;5087521;28;24972;-50
2022/04/24 02:36:18;;;;;;;18.13;16.53;;;;;;;;;;5086875;28;25077;-50
2022/04/24 02:38:43;;;;;;;17.77;16.15;;;;;;;;;;5087430;28;24514;-49
2022/04/24 02:41:08;;;;;;;19.30;17.70;;;;;;;;;;5087766;28;24430;-49
2022/04/24 02:43:33;;;;;;;18.60;17.00;;;;;;;;;;5086905;28;24463;-49
2022/04/24 02:45:58;;;;;;;18.95;17.25;;;;;;;;;;5087342;28;24773;-50
2022/04/24 02:48:27;;;;;;;17.35;15.85;;;;;;;;;;5088273;28;24970;-49
2022/04/24 02:50:52;;;;;;;18.73;17.13;;;;;;;;;;5086211;28;25053;-49
2022/04/24 02:53:17;;;;;;;18.90;17.10;;;;;;;;;;5087826;28;24972;-49
2022/04/24 02:55:42;;;;;;;17.50;15.90;;;;;;;;;;5085482;28;25034;-49
2022/04/24 02:58:08;;;;;;;17.50;16.00;;;;;;;;;;5088282;28;24498;-50
2022/04/24 03:00:49;;;;;;;17.00;15.60;;;;;;;;;;5080150;28;24422;-50
2022/04/24 03:03:18;;;;;;;17.90;16.20;;;;;;;;;;5087654;28;24899;-49
2022/04/24 03:05:43;;;;;;;17.73;16.13;;;;;;;;;;5085958;28;24968;-50
2022/04/24 03:08:09;;;;;;;17.95;16.38;;;;;;;;;;5086572;28;24452;-49
2022/04/24 03:10:35;;;;;;;17.57;15.97;;;;;;;;;;5086013;28;25034;-49
2022/04/24 03:13:00;;;;;;;16.53;15.13;;;;;;;;;;5087198;28;25026;-50
2022/04/24 03:15:25;;;;;;;17.23;15.73;;;;;;;;;;5086261;28;25010;-49
2022/04/24 03:17:51;;;;;;;17.75;16.20;;;;;;;;;;5085580;28;24488;-49
2022/04/24 03:20:18;;;;;;;17.92;16.42;;;;;;;;;;5086059;28;24454;-49
2022/04/24 03:22:43;;;;;;;16.58;15.07;;;;;;;;;;5085229;28;24441;-50
2022/04/24 03:25:09;;;;;;;16.08;14.68;;;;;;;;;;5085100;28;24818;-49
2022/04/24 03:27:34;;;;;;;17.30;15.90;;;;;;;;;;5086965;28;24418;-50
2022/04/24 03:29:59;;;;;;;17.33;15.90;;;;;;;;;;5086310;28;24460;-50
2022/04/24 03:32:25;;;;;;;17.83;16.13;;;;;;;;;;5084816;28;24425;-49
2022/04/24 03:34:50;;;;;;;16.95;15.45;;;;;;;;;;5085745;28;24434;-49
2022/04/24 03:37:16;;;;;;;17.60;16.00;;;;;;;;;;5086209;28;24505;-49
2022/04/24 03:39:41;;;;;;;15.98;14.57;;;;;;;;;;5087365;28;24811;-50
2022/04/24 03:42:07;;;;;;;18.00;16.40;;;;;;;;;;5087215;28;24767;-49
2022/04/24 03:44:32;;;;;;;17.50;16.00;;;;;;;;;;5085342;28;24457;-50
2022/04/24 03:46:58;;;;;;;17.30;15.80;;;;;;;;;;5083385;28;24426;-49
2022/04/24 03:49:23;;;;;;;16.70;15.30;;;;;;;;;;5085934;28;24425;-49
2022/04/24 03:51:48;;;;;;;17.07;15.47;;;;;;;;;;5084963;28;24438;-49
2022/04/24 03:54:13;;;;;;;17.60;16.00;;;;;;;;;;5087210;28;24479;-50
2022/04/24 03:56:39;;;;;;;16.88;15.38;;;;;;;;;;5084086;28;24509;-50
2022/04/24 03:59:04;;;;;;;17.35;15.85;;;;;;;;;;5084225;28;24411;-50
2022/04/24 04:01:29;;;;;;;17.10;15.60;;;;;;;;;;5086998;28;24971;-49
2022/04/24 04:03:56;;;;;;;16.38;14.80;;;;;;;;;;5082491;28;24540;-49
2022/04/24 04:06:21;;;;;;;17.75;16.25;;;;;;;;;;5087104;28;24426;-50
2022/04/24 04:08:46;;;;;;;16.74;15.30;;;;;;;;;;5082643;28;25044;-49
2022/04/24 04:11:12;;;;;;;17.58;16.08;;;;;;;;;;5086875;28;24420;-49
2022/04/24 04:13:37;;;;;;;17.25;15.75;;;;;;;;;;5084738;28;24446;-49
2022/04/24 04:16:02;;;;;;;17.13;15.73;;;;;;;;;;5083527;28;24448;-49
2022/04/24 04:18:27;;;;;;;17.60;16.10;;;;;;;;;;5085008;28;24406;-50
2022/04/24 04:20:53;;;;;;;18.60;17.00;;;;;;;;;;5083970;28;24454;-49
2022/04/24 04:23:18;;;;;;;20.23;18.30;;;;;;;;;;5072298;28;24429;-49
2022/04/24 04:25:43;;;;;;;19.70;18.00;;;;;;;;;;5086066;28;24424;-49
2022/04/24 04:28:08;;;;;;;19.00;17.30;;;;;;;;;;5085428;28;24783;-50
2022/04/24 04:30:33;;;;;;;19.20;17.40;;;;;;;;;;5083019;28;24967;-49
2022/04/24 04:32:59;;;;;;;19.30;17.40;;;;;;;;;;5083653;28;24426;-49
2022/04/24 04:35:24;;;;;;;19.35;17.55;;;;;;;;;;5085806;28;24433;-50
2022/04/24 04:37:49;;;;;;;19.00;17.20;;;;;;;;;;5084873;28;24972;-49
2022/04/24 04:40:15;;;;;;;17.37;15.77;;;;;;;;;;5085259;28;24470;-49
2022/04/24 04:42:40;;;;;;;17.07;15.47;;;;;;;;;;5084719;28;24421;-49
2022/04/24 04:45:06;;;;;;;17.67;16.08;;;;;;;;;;5085271;28;24457;-49
2022/04/24 04:47:31;;;;;;;17.23;15.63;;;;;;;;;;5084359;28;24503;-50
2022/04/24 04:49:56;;;;;;;17.43;15.93;;;;;;;;;;5083824;28;24901;-50
2022/04/24 04:52:22;;;;;;;18.30;16.50;;;;;;;;;;5082811;28;24475;-49
2022/04/24 04:54:47;;;;;;;17.50;15.90;;;;;;;;;;5086687;28;25083;-50
2022/04/24 04:57:12;;;;;;;17.50;15.90;;;;;;;;;;5079228;28;24430;-49
2022/04/24 04:59:37;;;;;;;18.08;16.50;;;;;;;;;;5083816;28;24980;-50
2022/04/24 05:02:03;;;;;;;18.60;16.90;;;;;;;;;;5085288;28;24422;-49
2022/04/24 05:04:28;;;;;;;17.10;15.50;;;;;;;;;;5084860;28;24433;-49
2022/04/24 05:06:53;;;;;;;16.88;15.38;;;;;;;;;;5083916;28;24495;-50
2022/04/24 05:09:18;;;;;;;16.40;15.00;;;;;;;;;;5085128;28;24433;-49
2022/04/24 05:11:43;;;;;;;15.85;14.45;;;;;;;;;;5083641;28;25303;-50
2022/04/24 05:14:09;;;;;;;16.23;14.82;;;;;;;;;;5078376;28;24419;-50
2022/04/24 05:16:34;;;;;;;16.13;14.73;;;;;;;;;;5079427;28;24628;-50
2022/04/24 05:18:59;;;;;;;16.23;14.82;;;;;;;;;;5073291;28;24418;-49
2022/04/24 05:21:24;;;;;;;15.43;14.13;;;;;;;;;;5085449;28;24823;-49
2022/04/24 05:23:49;;;;;;;15.93;14.43;;;;;;;;;;5085118;28;24521;-51
2022/04/24 05:26:15;;;;;;;15.85;14.45;;;;;;;;;;5085073;28;24507;-49
2022/04/24 05:28:40;;;;;;;15.23;13.80;;;;;;;;;;5084979;28;24433;-49
2022/04/24 05:31:05;;;;;;;16.00;14.50;;;;;;;;;;5081742;28;25028;-50
2022/04/24 05:33:31;;;;;;;16.30;14.90;;;;;;;;;;5085283;28;24492;-49
2022/04/24 05:35:56;;;;;;;15.90;14.50;;;;;;;;;;5085695;28;24446;-50
2022/04/24 05:38:21;;;;;;;15.00;13.70;;;;;;;;;;5083196;28;24418;-50
2022/04/24 05:40:46;;;;;;;15.33;13.83;;;;;;;;;;5083731;28;24513;-50
2022/04/24 05:43:11;;;;;;;14.50;13.30;;;;;;;;;;5083057;28;24403;-50
2022/04/24 05:45:37;;;;;;;15.30;14.00;;;;;;;;;;5089856;28;24407;-50
2022/04/24 05:48:02;;;;;;;14.80;13.50;;;;;;;;;;5090315;28;24402;-50
2022/04/24 05:50:27;;;;;;;15.40;14.10;;;;;;;;;;5090860;28;24382;-50
2022/04/24 05:52:52;;;;;;;15.97;14.50;;;;;;;;;;5090743;28;24955;-50
2022/04/24 05:55:18;;;;;;;14.77;13.47;;;;;;;;;;5090203;28;24960;-50
2022/04/24 05:57:43;;;;;;;14.88;13.57;;;;;;;;;;5090260;28;24994;-50
2022/04/24 06:00:09;;;;;;;15.15;13.75;;;;;;;;;;5087908;28;25019;-49
2022/04/24 06:02:34;;;;;;;14.43;13.23;;;;;;;;;;5083575;28;24414;-50
2022/04/24 06:04:59;;;;;;;14.70;13.50;;;;;;;;;;5085305;28;24426;-49
2022/04/24 06:07:24;;;;;;;15.43;14.23;;;;;;;;;;5089429;28;24432;-50
2022/04/24 06:09:50;;;;;;;14.17;12.97;;;;;;;;;;5086061;28;24558;-50
2022/04/24 06:12:15;;;;;;;14.23;13.13;;;;;;;;;;5086882;28;24518;-50
2022/04/24 06:14:40;;;;;;;14.77;13.57;;;;;;;;;;5087702;28;25041;-50
2022/04/24 06:17:05;;;;;;;14.50;13.30;;;;;;;;;;5088474;28;24568;-50
2022/04/24 06:19:31;;;;;;;14.80;13.60;;;;;;;;;;5089124;28;24633;-49
2022/04/24 06:21:56;;;;;;;14.10;12.90;;;;;;;;;;5088810;28;24418;-50
2022/04/24 06:24:21;;;;;;;14.63;13.43;;;;;;;;;;5088928;28;24414;-49
2022/04/24 06:26:46;;;;;;;13.60;12.40;;;;;;;;;;5086013;28;24501;-50
2022/04/24 06:29:12;;;;;;;14.27;13.07;;;;;;;;;;5085866;28;24496;-50
2022/04/24 06:31:37;;;;;;;14.43;13.23;;;;;;;;;;5086329;28;24421;-49
2022/04/24 06:34:02;;;;;;;14.10;12.90;;;;;;;;;;5087665;28;24418;-49
2022/04/24 06:36:27;;;;;;;14.17;12.97;;;;;;;;;;5076464;28;24438;-49
2022/04/24 06:38:53;;;;;;;14.20;13.00;;;;;;;;;;5083350;28;24410;-49
2022/04/24 06:41:18;;;;;;;14.85;13.65;;;;;;;;;;5082566;28;24445;-50
2022/04/24 06:43:43;;;;;;;14.85;13.65;;;;;;;;;;5081659;28;24487;-50
2022/04/24 06:46:08;;;;;;;15.60;14.30;;;;;;;;;;5082995;28;25144;-50
2022/04/24 06:48:33;;;;;;;15.85;14.45;;;;;;;;;;5087156;28;25069;-50
2022/04/24 06:50:58;;;;;;;15.03;13.63;;;;;;;;;;5085630;28;24453;-50
2022/04/24 06:53:25;;;;;;;15.43;14.13;;;;;;;;;;5084592;28;24414;-50
2022/04/24 06:55:53;;;;;;;16.25;14.95;;;;;;;;;;5086262;28;24529;-49
2022/04/24 06:58:18;;;;;;;15.63;14.32;;;;;;;;;;5085068;28;24422;-50
2022/04/24 07:00:44;;;;;;;14.95;13.65;;;;;;;;;;5081836;28;24467;-50
2022/04/24 07:03:10;;;;;;;13.80;12.60;;;;;;;;;;5085963;28;25161;-49
2022/04/24 07:05:36;;;;;;;14.32;13.13;;;;;;;;;;5082625;28;24911;-50
2022/04/24 07:08:01;;;;;;;14.40;13.30;;;;;;;;;;5078518;28;24576;-50
2022/04/24 07:10:26;;;;;;;13.73;12.63;;;;;;;;;;5079319;28;24824;-51
2022/04/24 07:12:52;;;;;;;14.20;13.00;;;;;;;;;;5083344;28;24421;-51
2022/04/24 07:15:18;;;;;;;14.48;13.18;;;;;;;;;;5080722;28;24445;-49
2022/04/24 07:17:46;;;;;;;14.05;12.82;;;;;;;;;;5086054;28;24887;-49
2022/04/24 07:20:12;;;;;;;14.43;13.23;;;;;;;;;;5084733;28;24457;-49
2022/04/24 07:22:51;;;;;;;13.88;12.77;;;;;;;;;;5079961;28;24434;-51
2022/04/24 07:25:17;;;;;;;13.25;12.25;;;;;;;;;;5080555;28;24418;-50
2022/04/24 07:27:42;;;;;;;14.40;13.30;;;;;;;;;;5082687;28;24436;-50
2022/04/24 07:30:13;;;;;;;14.70;13.50;;;;;;;;;;5085373;28;24444;-50
2022/04/24 07:32:39;;;;;;;13.80;12.70;;;;;;;;;;5087313;28;24419;-51
2022/04/24 07:35:05;;;;;;;17.20;15.80;;;;;;;;;;5087723;28;24426;-50
2022/04/24 07:37:31;;;;;;;15.10;13.88;;;;;;;;;;5082899;28;24425;-50
2022/04/24 07:39:58;;;;;;;13.50;12.40;;;;;;;;;;5066439;28;24493;-51
2022/04/24 07:42:23;;;;;;;13.55;12.45;;;;;;;;;;5080626;28;24536;-50
2022/04/24 07:44:51;;;;;;;13.50;12.40;;;;;;;;;;5079524;28;24509;-50
2022/04/24 07:47:16;;;;;;;16.20;14.90;;;;;;;;;;5084984;28;24414;-50
2022/04/24 07:49:41;;;;;;;15.05;13.80;;;;;;;;;;5084135;28;24433;-50
2022/04/24 07:52:06;;;;;;;13.73;12.63;;;;;;;;;;5083099;28;24476;-50
2022/04/24 07:54:31;;;;;;;13.93;12.82;;;;;;;;;;5085242;28;24995;-50
2022/04/24 07:56:56;;;;;;;15.70;14.50;;;;;;;;;;5081824;28;24429;-51
2022/04/24 07:59:21;;;;;;;17.58;16.17;;;;;;;;;;5083092;28;24450;-50
2022/04/24 08:01:51;;;;;;;15.38;13.98;;;;;;;;;;5083765;28;25073;-50
2022/04/24 08:04:16;;;;;;;18.40;16.80;;;;;;;;;;5084926;28;24941;-50
2022/04/24 08:06:41;;;;;;;20.65;18.85;;;;;;;;;;5081685;28;24535;-51
2022/04/24 08:09:06;;;;;;;20.10;18.30;;;;;;;;;;5083031;28;24464;-51
2022/04/24 08:11:32;;;;;;;19.53;17.83;;;;;;;;;;5083037;28;24868;-50
2022/04/24 08:13:57;;;;;;;19.33;17.73;;;;;;;;;;5083472;28;24418;-50
2022/04/24 08:16:26;;;;;;;19.70;18.00;;;;;;;;;;5085356;28;24494;-51
2022/04/24 08:18:51;;;;;;;19.67;17.88;;;;;;;;;;5067152;28;24487;-50
2022/04/24 08:21:16;;;;;;;19.20;17.40;;;;;;;;;;5082229;28;24952;-51
2022/04/24 08:23:41;;;;;;;18.87;17.07;;;;;;;;;;5085429;28;24418;-50
2022/04/24 08:26:07;;;;;;;17.80;16.40;;;;;;;;;;5081701;28;24455;-50
2022/04/24 08:28:33;;;;;;;17.17;15.82;;;;;;;;;;5081320;28;24521;-50
2022/04/24 08:30:58;;;;;;;17.73;16.23;;;;;;;;;;5083223;28;24449;-49
2022/04/24 08:33:23;;;;;;;15.70;14.30;;;;;;;;;;5090394;28;24823;-50
2022/04/24 08:35:48;;;;;;;15.03;13.73;;;;;;;;;;5085020;28;24474;-50
2022/04/24 08:38:13;;;;;;;15.20;13.80;;;;;;;;;;5080405;28;24508;-50
2022/04/24 08:40:39;;;;;;;13.90;12.70;;;;;;;;;;5082945;28;24421;-50
2022/04/24 08:43:04;;;;;;;14.25;13.00;;;;;;;;;;5084904;28;24432;-49
2022/04/24 08:45:31;;;;;;;14.33;13.13;;;;;;;;;;5085987;28;25086;-50
2022/04/24 08:47:56;;;;;;;14.38;13.18;;;;;;;;;;5071001;28;24418;-50
2022/04/24 08:50:22;;;;;;;14.03;12.83;;;;;;;;;;5075551;28;24449;-51
2022/04/24 08:52:48;;;;;;;14.07;12.87;;;;;;;;;;5075660;28;24967;-50
2022/04/24 08:55:13;;;;;;;13.47;12.27;;;;;;;;;;5085247;28;24430;-50
2022/04/24 08:57:38;;;;;;;13.43;12.30;;;;;;;;;;5075497;28;25238;-50
2022/04/24 09:00:05;;;;;;;13.53;12.20;;;;;;;;;;5082519;28;24971;-50
2022/04/24 09:02:30;;;;;;;12.75;11.65;;;;;;;;;;5079916;28;24555;-50
2022/04/24 09:04:56;;;;;;;13.03;11.93;;;;;;;;;;5083393;28;24518;-50
2022/04/24 09:07:22;;;;;;;12.50;11.30;;;;;;;;;;5082390;28;25230;-50
2022/04/24 09:09:47;;;;;;;12.50;11.50;;;;;;;;;;5082978;28;24517;-51
2022/04/24 09:12:13;;;;;;;13.45;12.35;;;;;;;;;;5085626;28;24406;-50
2022/04/24 09:14:39;;;;;;;12.40;11.30;;;;;;;;;;5078087;28;24523;-51
2022/04/24 09:17:05;;;;;;;13.47;12.40;;;;;;;;;;5081101;28;24518;-50
2022/04/24 09:19:30;;;;;;;13.70;12.40;;;;;;;;;;5087256;28;24551;-50
2022/04/24 09:22:06;;;;;;;12.95;11.95;;;;;;;;;;5081990;28;24414;-50
2022/04/24 09:24:43;;;;;;;13.80;12.70;;;;;;;;;;5080871;28;24509;-57
2022/04/24 09:27:09;;;;;;;13.60;12.40;;;;;;;;;;5089541;28;24411;-51
2022/04/24 09:29:35;;;;;;;14.27;13.07;;;;;;;;;;5086900;28;24437;-50
2022/04/24 09:32:00;;;;;;;13.90;12.60;;;;;;;;;;5088960;28;24425;-50
2022/04/24 09:34:30;;;;;;;13.27;12.27;;;;;;;;;;5087103;28;25034;-50
2022/04/24 09:37:02;;;;;;;14.32;13.13;;;;;;;;;;5086984;28;24505;-50
2022/04/24 09:39:28;;;;;;;13.40;12.20;;;;;;;;;;5085536;28;24501;-50
2022/04/24 09:42:03;;;;;;;14.30;13.10;;;;;;;;;;5087261;28;24525;-50
2022/04/24 09:44:35;;;;;;;13.63;12.43;;;;;;;;;;5087624;28;24448;-50
2022/04/24 09:47:00;;;;;;;13.57;12.38;;;;;;;;;;5087684;28;24567;-50
2022/04/24 09:49:25;;;;;;;13.88;12.68;;;;;;;;;;5086079;28;25022;-51
2022/04/24 09:51:50;;;;;;;13.20;12.10;;;;;;;;;;5085351;28;24445;-51
2022/04/24 09:54:16;;;;;;;14.00;12.77;;;;;;;;;;5087830;28;24496;-50
2022/04/24 09:56:41;;;;;;;14.00;12.77;;;;;;;;;;5086600;28;24484;-50
2022/04/24 09:59:08;;;;;;;14.00;12.80;;;;;;;;;;5086612;28;25297;-50
2022/04/24 10:01:33;;;;;;;14.27;13.07;;;;;;;;;;5084185;28;24876;-50
2022/04/24 10:03:58;;;;;;;14.43;13.07;;;;;;;;;;5087285;28;25023;-50
2022/04/24 10:06:24;;;;;;;15.30;13.90;;;;;;;;;;5087816;28;24433;-50
2022/04/24 10:08:50;;;;;;;15.38;14.07;;;;;;;;;;5086463;28;24438;-54
2022/04/24 10:11:15;;;;;;;16.13;14.73;;;;;;;;;;5087154;28;25107;-51
2022/04/24 10:13:42;;;;;;;15.70;14.30;;;;;;;;;;5086279;28;24545;-50
2022/04/24 10:16:22;;;;;;;15.85;14.35;;;;;;;;;;5082291;28;24966;-50
2022/04/24 10:19:10;;;;;;;16.77;15.27;;;;;;;;;;5083246;28;25061;-50
2022/04/24 10:21:53;;;;;;;15.73;14.25;;;;;;;;;;5086165;28;25090;-50
2022/04/24 10:24:19;;;;;;;15.70;14.10;;;;;;;;;;5086393;28;24475;-50
2022/04/24 10:26:54;;;;;;;15.77;14.37;;;;;;;;;;5087422;28;24768;-50
2022/04/24 10:29:19;;;;;;;16.20;14.80;;;;;;;;;;5085818;28;24426;-50
2022/04/24 10:31:46;;;;;;;15.20;13.90;;;;;;;;;;5086873;28;24468;-50
2022/04/24 10:34:13;;;;;;;14.20;12.90;;;;;;;;;;5086592;28;25015;-50
2022/04/24 10:36:51;;;;;;;12.27;11.38;;;;;;;;;;5084450;28;24553;-51
2022/04/24 10:39:19;;;;;;;12.60;11.50;;;;;;;;;;5086179;28;24429;-50
2022/04/24 10:41:53;;;;;;;13.32;12.18;;;;;;;;;;5085757;28;24425;-49
2022/04/24 10:44:18;;;;;;;14.13;12.93;;;;;;;;;;5083866;28;24946;-50
2022/04/24 10:46:46;;;;;;;13.70;12.50;;;;;;;;;;5086486;28;24471;-49
2022/04/24 10:49:13;;;;;;;13.53;12.43;;;;;;;;;;5083293;28;24523;-49
2022/04/24 10:51:40;;;;;;;12.93;11.73;;;;;;;;;;5085521;28;24448;-50
2022/04/24 10:54:08;;;;;;;13.40;12.20;;;;;;;;;;5080631;28;24422;-49
2022/04/24 10:56:35;;;;;;;12.85;11.70;;;;;;;;;;5083908;28;24434;-50
2022/04/24 10:59:07;;;;;;;13.48;12.18;;;;;;;;;;5086410;28;24422;-50
2022/04/24 11:01:32;;;;;;;13.80;12.60;;;;;;;;;;5086280;28;24992;-49
2022/04/24 11:04:03;;;;;;;13.63;12.32;;;;;;;;;;5087154;28;24430;-50
2022/04/24 11:06:28;;;;;;;13.00;11.80;;;;;;;;;;5087478;28;25002;-49
2022/04/24 11:08:53;;;;;;;11.88;10.88;;;;;;;;;;5085870;28;24431;-49
2022/04/24 11:11:19;;;;;;;13.10;11.90;;;;;;;;;;5084851;28;24414;-50
2022/04/24 11:13:44;;;;;;;13.60;12.40;;;;;;;;;;5084631;28;25295;-50
2022/04/24 11:16:11;;;;;;;13.18;11.82;;;;;;;;;;5084087;28;24522;-50
2022/04/24 11:18:36;;;;;;;13.30;12.10;;;;;;;;;;5083310;28;24418;-49
2022/04/24 11:21:03;;;;;;;13.70;12.40;;;;;;;;;;5076511;28;24543;-49
2022/04/24 11:23:30;;;;;;;13.88;12.68;;;;;;;;;;5083007;28;24701;-53
2022/04/24 11:25:56;;;;;;;14.80;13.35;;;;;;;;;;5076765;28;25030;-50
2022/04/24 11:28:31;;;;;;;13.38;12.18;;;;;;;;;;5080428;28;24433;-50
2022/04/24 11:31:05;;;;;;;12.88;11.68;;;;;;;;;;5083539;28;24524;-49
2022/04/24 11:33:30;;;;;;;14.30;13.00;;;;;;;;;;5080326;28;24468;-50
2022/04/24 11:36:02;;;;;;;14.80;13.30;;;;;;;;;;5083130;28;24442;-49
2022/04/24 11:38:29;;;;;;;13.85;12.65;;;;;;;;;;5081801;28;24444;-49
2022/04/24 11:40:54;;;;;;;15.10;13.70;;;;;;;;;;5080716;28;24429;-50
2022/04/24 11:43:19;;;;;;;14.75;13.45;;;;;;;;;;5079542;28;24425;-49
2022/04/24 11:51:17;;;;;;;15.75;14.15;;;;;;;;;;5081862;28;24408;-50
2022/04/24 11:53:43;;;;;;;16.27;14.68;;;;;;;;;;5079082;28;24483;-49
2022/04/24 11:56:10;;;;;;;16.03;14.53;;;;;;;;;;5078742;28;24468;-50
2022/04/24 11:58:36;;;;;;;16.30;14.80;;;;;;;;;;5077312;28;24410;-50
2022/04/24 12:01:02;;;;;;;16.42;14.93;;;;;;;;;;5082806;28;25033;-50
2022/04/24 12:03:30;;;;;;;15.55;14.05;;;;;;;;;;5085110;28;24749;-50
2022/04/24 12:06:06;;;;;;;16.20;14.70;;;;;;;;;;5083828;28;24808;-50
2022/04/24 12:08:43;;;;;;;15.40;14.00;;;;;;;;;;5082059;28;24418;-50
2022/04/24 12:11:09;;;;;;;15.98;14.48;;;;;;;;;;5080094;28;24530;-52
2022/04/24 12:13:34;;;;;;;16.77;15.27;;;;;;;;;;5078921;28;24507;-50
2022/04/24 12:16:00;;;;;;;15.52;14.15;;;;;;;;;;5083797;28;24789;-51
2022/04/24 12:18:25;;;;;;;17.00;15.60;;;;;;;;;;5081022;28;24519;-50
2022/04/24 12:20:51;;;;;;;15.53;14.13;;;;;;;;;;5079043;28;24491;-50
2022/04/24 12:23:17;;;;;;;16.07;14.50;;;;;;;;;;5081923;28;24429;-50
2022/04/24 12:25:46;;;;;;;15.43;14.02;;;;;;;;;;5081403;28;24422;-51
2022/04/24 12:28:11;;;;;;;15.87;13.67;;;;;;;;;;5078385;28;25068;-50
2022/04/24 12:30:36;;;;;;;15.45;14.05;;;;;;;;;;5078026;28;26590;-50
2022/04/24 12:33:08;;;;;;;16.37;14.87;;;;;;;;;;5080389;28;24976;-50
2022/04/24 12:35:33;;;;;;;16.50;15.10;;;;;;;;;;5081732;28;24446;-52
2022/04/24 12:37:59;;;;;;;16.50;15.00;;;;;;;;;;5081760;28;24871;-51
2022/04/24 12:40:24;;;;;;;15.70;14.30;;;;;;;;;;5080389;28;24419;-51
2022/04/24 12:42:53;;;;;;;17.23;15.63;;;;;;;;;;5078622;28;25224;-51
2022/04/24 12:45:20;;;;;;;18.00;16.30;;;;;;;;;;5079473;28;24464;-50
2022/04/24 12:47:45;;;;;;;15.80;14.40;;;;;;;;;;5081745;28;24583;-51
2022/04/24 12:50:10;;;;;;;19.10;17.20;;;;;;;;;;5077378;28;24536;-51
2022/04/24 12:52:36;;;;;;;16.27;14.67;;;;;;;;;;5082514;28;25324;-51
2022/04/24 12:55:01;;;;;;;16.00;14.50;;;;;;;;;;5080619;28;24438;-52
2022/04/24 12:57:26;;;;;;;16.47;14.97;;;;;;;;;;5087395;28;24494;-52
2022/04/24 12:59:51;;;;;;;17.70;16.10;;;;;;;;;;5078890;28;25157;-51
2022/04/24 13:02:17;;;;;;;16.00;14.57;;;;;;;;;;5081823;28;24508;-51
2022/04/24 13:04:42;;;;;;;16.80;15.23;;;;;;;;;;5079961;28;24508;-50
2022/04/24 13:07:08;;;;;;;16.52;14.93;;;;;;;;;;5084241;28;24970;-51
2022/04/24 13:09:42;;;;;;;17.13;15.43;;;;;;;;;;5083136;28;24499;-51
2022/04/24 13:12:11;;;;;;;16.25;14.75;;;;;;;;;;5083576;28;24487;-51
2022/04/24 13:14:37;;;;;;;16.95;15.45;;;;;;;;;;5082173;28;24458;-51
2022/04/24 13:19:46;;;;;;;17.20;15.50;;;;;;;;;;5087142;28;24507;-52
2022/04/24 13:22:11;;;;;;;17.70;15.90;;;;;;;;;;5086894;28;24419;-51
2022/04/24 13:24:36;;;;;;;17.00;15.50;;;;;;;;;;5087115;28;24441;-50
2022/04/24 13:27:01;;;;;;;17.25;15.52;;;;;;;;;;5088663;28;24505;-52
2022/04/24 13:29:28;;;;;;;16.90;15.40;;;;;;;;;;5088584;28;24817;-51
2022/04/24 13:31:53;;;;;;;16.70;15.20;;;;;;;;;;5086837;28;24458;-51
2022/04/24 13:34:18;;;;;;;17.83;16.13;;;;;;;;;;5081716;28;24517;-51
2022/04/24 13:36:44;;;;;;;17.07;15.37;;;;;;;;;;5085184;28;24467;-51
2022/04/24 13:39:10;;;;;;;18.00;16.20;;;;;;;;;;5083900;28;24449;-51
2022/04/24 13:41:35;;;;;;;15.50;14.10;;;;;;;;;;5085372;28;24461;-51
2022/04/24 13:44:00;;;;;;;16.40;14.90;;;;;;;;;;5083403;28;24414;-51
2022/04/24 13:46:27;;;;;;;16.00;14.57;;;;;;;;;;5084951;28;25321;-51
2022/04/24 13:48:52;;;;;;;15.93;14.43;;;;;;;;;;5085321;28;24426;-51
2022/04/24 13:51:17;;;;;;;15.70;14.20;;;;;;;;;;5084260;28;24773;-51
2022/04/24 13:53:45;;;;;;;17.20;15.50;;;;;;;;;;5082697;28;24509;-51
2022/04/24 13:56:10;;;;;;;15.85;14.25;;;;;;;;;;5083324;28;24503;-50
2022/04/24 13:58:35;;;;;;;17.65;15.90;;;;;;;;;;5081610;28;24422;-52
2022/04/24 14:01:01;;;;;;;14.27;13.00;;;;;;;;;;5085082;28;24419;-51
2022/04/24 14:03:26;;;;;;;14.07;12.77;;;;;;;;;;5085657;28;24429;-52
2022/04/24 14:05:52;;;;;;;13.57;12.30;;;;;;;;;;5081288;28;24436;-51
2022/04/24 14:08:18;;;;;;;13.30;12.07;;;;;;;;;;5083630;28;24414;-47
2022/04/24 14:10:43;;;;;;;13.18;11.98;;;;;;;;;;5083247;28;24458;-47
2022/04/24 14:13:09;;;;;;;13.23;12.03;;;;;;;;;;5083524;28;24491;-47
2022/04/24 14:15:35;;;;;;;13.67;12.37;;;;;;;;;;5085100;28;24441;-47
2022/04/24 14:18:00;;;;;;;13.63;12.23;;;;;;;;;;5081728;28;24777;-47